Terminal Aerodrome Forecast
Issued by NWS Sterling, VA

Current Version | Previous Version | Graphics & Text | Print | Product List | Glossary On
Versions: 1 2 3 4 5 6 7 8 9 10 11 12 13
000
FTUS41 KLWX 220541
TAFMRB
TAF
KMRB 220541Z 2206/2306 30008KT P6SM BKN060
     FM220900 32016G28KT P6SM BKN050
     FM221200 32019G30KT P6SM SCT040
     FM222200 33014G21KT P6SM SKC
     FM230000 33008KT P6SM SKC
     FM230400 34004KT P6SM FEW250=

USA.gov is the U.S. government's official web portal to all federal, state and local government web resources and services.